Date,TemperatureHighF,TemperatureAvgF,TemperatureLowF,DewpointHighF,DewpointAvgF,DewpointLowF,HumidityHigh,HumidityAvg,HumidityLow,PressureMaxIn,PressureMinIn,WindSpeedMaxMPH,WindSpeedAvgMPH,GustSpeedMaxMPH,PrecipitationSumIn
2013-3-1,44.8,39.4,36.7,36.0,31.9,27.6,85,75,64,29.74,29.56,8,2,10,0.00
2013-3-2,45.9,39.8,36.9,28.1,22.4,17.4,67,50,39,29.74,29.68,8,2,9,0.00
2013-3-3,42.6,38.7,36.7,23.0,20.8,18.3,53,48,43,29.68,29.62,6,2,7,0.00
2013-3-4,43.0,37.1,33.8,22.8,18.4,13.2,60,47,30,29.74,29.62,10,4,13,0.00
2013-3-5,44.2,38.5,35.4,33.2,24.5,18.5,65,57,49,30.12,29.74,10,2,13,0.04
2013-3-6,43.3,39.6,36.5,34.6,29.3,25.5,72,66,61,30.15,30.00,8,1,11,0.04
2013-3-7,39.2,37.5,36.1,33.9,31.8,28.8,87,80,66,30.03,29.91,14,4,17,1.18
2013-3-8,39.6,37.0,35.1,37.1,33.8,31.8,92,88,78,30.12,29.88,11,3,13,0.91
2013-3-9,41.9,38.4,36.3,33.0,29.3,25.0,78,70,62,30.42,30.12,8,2,11,0.04
2013-3-10,44.6,40.1,36.9,29.5,25.2,20.9,65,55,49,30.50,30.42,4,0,6,0.00
2013-3-11,49.1,41.9,36.7,32.1,26.6,20.7,66,55,45,30.47,30.30,6,1,8,0.00
2013-3-12,53.1,49.5,42.6,48.0,41.2,32.1,88,73,63,30.33,29.85,13,3,16,0.16
2013-3-13,52.3,47.6,41.2,49.0,34.4,14.2,89,63,32,29.85,29.77,10,2,14,0.79
2013-3-14,41.0,36.0,28.6,15.7,6.8,-9.5,42,30,17,29.88,29.77,8,2,13,0.00
2013-3-15,40.8,32.6,25.7,12.7,-4.1,-12.3,37,21,11,29.94,29.74,11,4,14,0.00
2013-3-16,41.0,36.5,33.3,14.8,7.0,-0.7,40,29,18,29.94,29.74,10,2,11,0.00
2013-3-17,43.2,35.1,27.9,16.2,2.5,-10.3,43,27,14,30.39,29.94,10,2,10,0.00
2013-3-18,41.7,33.3,27.9,11.6,-2.3,-12.8,41,22,15,30.56,30.36,6,1,8,0.00
2013-3-19,42.6,37.0,32.4,37.3,27.4,11.6,88,69,41,30.36,29.56,10,2,20,0.71
2013-3-20,43.5,37.3,32.2,31.3,8.5,-0.4,86,32,18,29.91,29.68,8,2,12,0.00
2013-3-21,45.7,36.0,28.9,23.4,14.3,5.9,49,41,34,29.91,29.62,6,1,7,0.00
2013-3-22,40.5,34.9,31.8,31.3,22.7,14.9,73,61,46,29.80,29.62,8,1,8,0.43
2013-3-23,46.0,37.3,31.5,15.4,8.8,-2.2,46,32,15,29.83,29.71,13,5,13,0.00
2013-3-24,50.2,39.2,33.1,18.4,10.8,7.2,39,31,21,29.91,29.83,8,3,11,0.00
2013-3-25,53.2,40.9,32.2,27.2,16.6,8.7,44,37,28,29.83,29.50,9,2,13,0.00
2013-3-26,51.3,41.3,36.7,22.4,15.3,1.4,49,36,18,29.83,29.50,9,2,11,0.00
2013-3-27,56.8,44.5,32.7,20.3,8.8,-4.7,44,26,10,29.91,29.83,7,2,9,0.00
2013-3-28,54.1,44.2,39.9,34.0,22.6,16.9,57,43,29,30.09,29.88,6,2,231,0.04
2013-3-29,60.3,47.2,38.8,25.7,20.0,16.2,48,34,22,30.12,30.06,6,1,8,0.00
2013-3-30,59.2,46.7,39.9,25.9,18.2,3.4,44,33,12,30.21,30.12,6,1,8,0.00
2013-3-31,59.2,45.8,34.2,28.8,18.7,5.6,52,35,12,30.24,29.88,8,1,11,0.00